sensor_id;sensor_type;location;lat;lon;timestamp;temperature;humidity
1570;DHT22;778;50.120;8.698;2023-06-04T00:01:09;16.20;59.70
1570;DHT22;778;50.120;8.698;2023-06-04T00:03:44;16.20;60.00
1570;DHT22;778;50.120;8.698;2023-06-04T00:06:13;16.10;59.80
1570;DHT22;778;50.120;8.698;2023-06-04T00:08:41;16.10;60.00
1570;DHT22;778;50.120;8.698;2023-06-04T00:11:09;16.10;60.10
1570;DHT22;778;50.120;8.698;2023-06-04T00:13:38;16.00;60.20
1570;DHT22;778;50.120;8.698;2023-06-04T00:16:06;16.10;60.80
1570;DHT22;778;50.120;8.698;2023-06-04T00:18:35;16.00;60.20
1570;DHT22;778;50.120;8.698;2023-06-04T00:21:05;16.10;60.40
1570;DHT22;778;50.120;8.698;2023-06-04T00:23:33;16.00;60.40
1570;DHT22;778;50.120;8.698;2023-06-04T00:26:03;15.90;60.50
1570;DHT22;778;50.120;8.698;2023-06-04T00:28:32;15.90;60.60
1570;DHT22;778;50.120;8.698;2023-06-04T00:31:02;15.90;60.90
1570;DHT22;778;50.120;8.698;2023-06-04T00:33:33;15.80;61.40
1570;DHT22;778;50.120;8.698;2023-06-04T00:36:02;15.80;61.00
1570;DHT22;778;50.120;8.698;2023-06-04T00:38:32;15.70;61.00
1570;DHT22;778;50.120;8.698;2023-06-04T00:41:00;15.70;61.20
1570;DHT22;778;50.120;8.698;2023-06-04T00:43:29;15.70;61.40
1570;DHT22;778;50.120;8.698;2023-06-04T00:45:59;15.60;61.50
1570;DHT22;778;50.120;8.698;2023-06-04T00:48:30;15.50;61.60
1570;DHT22;778;50.120;8.698;2023-06-04T00:50:59;15.50;62.00
1570;DHT22;778;50.120;8.698;2023-06-04T00:53:28;15.50;62.00
1570;DHT22;778;50.120;8.698;2023-06-04T00:55:58;15.50;62.20
1570;DHT22;778;50.120;8.698;2023-06-04T00:58:26;15.50;62.10
1570;DHT22;778;50.120;8.698;2023-06-04T01:00:56;15.40;61.90
1570;DHT22;778;50.120;8.698;2023-06-04T01:03:31;15.40;62.10
1570;DHT22;778;50.120;8.698;2023-06-04T01:06:07;15.40;62.40
1570;DHT22;778;50.120;8.698;2023-06-04T01:08:40;15.50;62.90
1570;DHT22;778;50.120;8.698;2023-06-04T01:11:11;15.30;62.60
1570;DHT22;778;50.120;8.698;2023-06-04T01:13:40;15.30;63.10
1570;DHT22;778;50.120;8.698;2023-06-04T01:16:09;15.40;62.70
1570;DHT22;778;50.120;8.698;2023-06-04T01:18:39;15.30;62.90
1570;DHT22;778;50.120;8.698;2023-06-04T01:21:10;15.30;63.20
1570;DHT22;778;50.120;8.698;2023-06-04T01:23:48;15.20;62.80
1570;DHT22;778;50.120;8.698;2023-06-04T01:26:27;15.20;63.40
1570;DHT22;778;50.120;8.698;2023-06-04T01:28:57;15.10;63.90
1570;DHT22;778;50.120;8.698;2023-06-04T01:31:27;15.20;63.50
1570;DHT22;778;50.120;8.698;2023-06-04T01:34:00;15.10;63.60
1570;DHT22;778;50.120;8.698;2023-06-04T01:36:28;15.10;63.80
1570;DHT22;778;50.120;8.698;2023-06-04T01:38:57;15.00;63.90
1570;DHT22;778;50.120;8.698;2023-06-04T01:41:29;15.00;64.20
1570;DHT22;778;50.120;8.698;2023-06-04T01:43:57;14.90;64.40
1570;DHT22;778;50.120;8.698;2023-06-04T01:46:25;14.90;64.30
1570;DHT22;778;50.120;8.698;2023-06-04T01:48:54;14.90;64.40
1570;DHT22;778;50.120;8.698;2023-06-04T01:51:22;14.90;64.60
1570;DHT22;778;50.120;8.698;2023-06-04T01:53:51;14.90;64.70
1570;DHT22;778;50.120;8.698;2023-06-04T01:56:19;14.80;64.40
1570;DHT22;778;50.120;8.698;2023-06-04T01:58:49;14.80;64.50
1570;DHT22;778;50.120;8.698;2023-06-04T02:01:17;14.80;64.50
1570;DHT22;778;50.120;8.698;2023-06-04T02:03:46;14.80;64.80
1570;DHT22;778;50.120;8.698;2023-06-04T02:06:15;14.70;64.70
1570;DHT22;778;50.120;8.698;2023-06-04T02:08:43;14.70;64.80
1570;DHT22;778;50.120;8.698;2023-06-04T02:11:12;14.70;64.90
1570;DHT22;778;50.120;8.698;2023-06-04T02:13:40;14.70;64.90
1570;DHT22;778;50.120;8.698;2023-06-04T02:16:10;14.70;65.40
1570;DHT22;778;50.120;8.698;2023-06-04T02:18:38;14.60;66.00
1570;DHT22;778;50.120;8.698;2023-06-04T02:21:07;14.70;66.40
1570;DHT22;778;50.120;8.698;2023-06-04T02:23:36;14.60;65.80
1570;DHT22;778;50.120;8.698;2023-06-04T02:26:04;14.60;66.00
1570;DHT22;778;50.120;8.698;2023-06-04T02:28:33;14.60;66.20
1570;DHT22;778;50.120;8.698;2023-06-04T02:31:02;14.40;66.30
1570;DHT22;778;50.120;8.698;2023-06-04T02:33:32;14.40;66.70
1570;DHT22;778;50.120;8.698;2023-06-04T02:36:00;14.30;66.80
1570;DHT22;778;50.120;8.698;2023-06-04T02:38:29;14.30;67.00
1570;DHT22;778;50.120;8.698;2023-06-04T02:40:57;14.30;67.50
1570;DHT22;778;50.120;8.698;2023-06-04T02:43:26;14.30;68.10
1570;DHT22;778;50.120;8.698;2023-06-04T02:45:54;14.20;68.10
1570;DHT22;778;50.120;8.698;2023-06-04T02:48:22;14.20;67.70
1570;DHT22;778;50.120;8.698;2023-06-04T02:50:52;14.10;67.70
1570;DHT22;778;50.120;8.698;2023-06-04T02:53:21;14.10;68.50
1570;DHT22;778;50.120;8.698;2023-06-04T02:55:50;14.20;69.00
1570;DHT22;778;50.120;8.698;2023-06-04T02:58:20;14.00;68.10
1570;DHT22;778;50.120;8.698;2023-06-04T03:00:52;14.00;68.50
1570;DHT22;778;50.120;8.698;2023-06-04T03:03:22;14.00;68.60
1570;DHT22;778;50.120;8.698;2023-06-04T03:05:52;14.00;68.80
1570;DHT22;778;50.120;8.698;2023-06-04T03:08:21;14.00;69.00
1570;DHT22;778;50.120;8.698;2023-06-04T03:10:50;14.00;69.10
1570;DHT22;778;50.120;8.698;2023-06-04T03:13:19;13.90;69.20
1570;DHT22;778;50.120;8.698;2023-06-04T03:15:47;13.90;69.60
1570;DHT22;778;50.120;8.698;2023-06-04T03:18:16;13.90;69.50
1570;DHT22;778;50.120;8.698;2023-06-04T03:20:44;14.00;69.60
1570;DHT22;778;50.120;8.698;2023-06-04T03:23:14;13.90;70.30
1570;DHT22;778;50.120;8.698;2023-06-04T03:25:43;13.90;69.90
1570;DHT22;778;50.120;8.698;2023-06-04T03:28:11;13.80;70.00
1570;DHT22;778;50.120;8.698;2023-06-04T03:30:40;13.80;70.20
1570;DHT22;778;50.120;8.698;2023-06-04T03:33:09;13.70;70.50
1570;DHT22;778;50.120;8.698;2023-06-04T03:35:39;13.70;71.00
1570;DHT22;778;50.120;8.698;2023-06-04T03:38:08;13.70;70.80
1570;DHT22;778;50.120;8.698;2023-06-04T03:40:38;13.70;71.10
1570;DHT22;778;50.120;8.698;2023-06-04T03:43:08;13.70;70.90
1570;DHT22;778;50.120;8.698;2023-06-04T03:45:37;13.60;71.30
1570;DHT22;778;50.120;8.698;2023-06-04T03:48:06;13.60;71.20
1570;DHT22;778;50.120;8.698;2023-06-04T03:50:36;13.60;71.50
1570;DHT22;778;50.120;8.698;2023-06-04T03:53:05;13.70;71.30
1570;DHT22;778;50.120;8.698;2023-06-04T03:55:33;13.70;71.40
1570;DHT22;778;50.120;8.698;2023-06-04T03:58:04;13.60;71.80
1570;DHT22;778;50.120;8.698;2023-06-04T04:00:37;13.60;71.90
1570;DHT22;778;50.120;8.698;2023-06-04T04:03:07;13.60;71.90
1570;DHT22;778;50.120;8.698;2023-06-04T04:05:37;13.60;72.10
1570;DHT22;778;50.120;8.698;2023-06-04T04:08:05;13.50;72.40
1570;DHT22;778;50.120;8.698;2023-06-04T04:10:35;13.60;72.70
1570;DHT22;778;50.120;8.698;2023-06-04T04:13:06;13.80;73.20
1570;DHT22;778;50.120;8.698;2023-06-04T04:15:37;14.00;72.80
1570;DHT22;778;50.120;8.698;2023-06-04T04:18:06;14.20;71.70
1570;DHT22;778;50.120;8.698;2023-06-04T04:20:35;14.40;71.80
1570;DHT22;778;50.120;8.698;2023-06-04T04:23:07;14.50;70.80
1570;DHT22;778;50.120;8.698;2023-06-04T04:25:37;14.50;70.90
1570;DHT22;778;50.120;8.698;2023-06-04T04:28:08;14.50;71.40
1570;DHT22;778;50.120;8.698;2023-06-04T04:30:37;14.70;70.90
1570;DHT22;778;50.120;8.698;2023-06-04T04:33:08;14.80;70.70
1570;DHT22;778;50.120;8.698;2023-06-04T04:35:43;14.70;70.60
1570;DHT22;778;50.120;8.698;2023-06-04T04:38:15;14.80;70.80
1570;DHT22;778;50.120;8.698;2023-06-04T04:40:50;14.90;70.30
1570;DHT22;778;50.120;8.698;2023-06-04T04:43:30;15.00;70.80
1570;DHT22;778;50.120;8.698;2023-06-04T04:46:05;15.20;70.10
1570;DHT22;778;50.120;8.698;2023-06-04T04:48:34;15.30;69.60
1570;DHT22;778;50.120;8.698;2023-06-04T04:51:02;15.20;69.80
1570;DHT22;778;50.120;8.698;2023-06-04T04:53:31;15.40;69.90
1570;DHT22;778;50.120;8.698;2023-06-04T04:56:00;15.30;69.40
1570;DHT22;778;50.120;8.698;2023-06-04T04:58:31;15.40;69.40
1570;DHT22;778;50.120;8.698;2023-06-04T05:01:00;15.70;69.50
1570;DHT22;778;50.120;8.698;2023-06-04T05:03:28;15.70;68.70
1570;DHT22;778;50.120;8.698;2023-06-04T05:05:57;16.00;69.20
1570;DHT22;778;50.120;8.698;2023-06-04T05:08:25;16.20;68.50
1570;DHT22;778;50.120;8.698;2023-06-04T05:10:54;16.10;67.70
1570;DHT22;778;50.120;8.698;2023-06-04T05:13:22;16.20;67.80
1570;DHT22;778;50.120;8.698;2023-06-04T05:15:58;16.10;68.30
1570;DHT22;778;50.120;8.698;2023-06-04T05:18:28;16.20;68.30
1570;DHT22;778;50.120;8.698;2023-06-04T05:21:00;16.20;68.30
1570;DHT22;778;50.120;8.698;2023-06-04T05:23:32;16.40;68.20
1570;DHT22;778;50.120;8.698;2023-06-04T05:26:05;16.60;67.10
1570;DHT22;778;50.120;8.698;2023-06-04T05:28:34;16.70;67.50
1570;DHT22;778;50.120;8.698;2023-06-04T05:31:05;16.80;67.50
1570;DHT22;778;50.120;8.698;2023-06-04T05:33:35;17.00;67.20
1570;DHT22;778;50.120;8.698;2023-06-04T05:36:08;16.90;67.00
1570;DHT22;778;50.120;8.698;2023-06-04T05:38:43;16.70;66.80
1570;DHT22;778;50.120;8.698;2023-06-04T05:41:14;16.80;67.20
1570;DHT22;778;50.120;8.698;2023-06-04T05:43:43;16.90;67.00
1570;DHT22;778;50.120;8.698;2023-06-04T05:46:16;16.80;66.90
1570;DHT22;778;50.120;8.698;2023-06-04T05:48:46;17.00;67.30
1570;DHT22;778;50.120;8.698;2023-06-04T05:51:14;17.10;67.00
1570;DHT22;778;50.120;8.698;2023-06-04T05:53:44;17.30;66.60
1570;DHT22;778;50.120;8.698;2023-06-04T05:56:13;17.50;66.50
1570;DHT22;778;50.120;8.698;2023-06-04T05:58:45;18.00;65.90
1570;DHT22;778;50.120;8.698;2023-06-04T06:01:21;18.30;65.20
1570;DHT22;778;50.120;8.698;2023-06-04T06:03:51;18.50;64.80
1570;DHT22;778;50.120;8.698;2023-06-04T06:06:21;18.60;63.60
1570;DHT22;778;50.120;8.698;2023-06-04T06:08:50;18.20;63.10
1570;DHT22;778;50.120;8.698;2023-06-04T06:11:19;18.10;64.00
1570;DHT22;778;50.120;8.698;2023-06-04T06:13:48;18.00;65.00
1570;DHT22;778;50.120;8.698;2023-06-04T06:16:17;18.30;63.80
1570;DHT22;778;50.120;8.698;2023-06-04T06:18:47;18.50;63.10
1570;DHT22;778;50.120;8.698;2023-06-04T06:21:16;18.60;63.10
1570;DHT22;778;50.120;8.698;2023-06-04T06:23:44;18.80;62.60
1570;DHT22;778;50.120;8.698;2023-06-04T06:26:13;19.00;62.20
1570;DHT22;778;50.120;8.698;2023-06-04T06:28:49;19.20;61.30
1570;DHT22;778;50.120;8.698;2023-06-04T06:31:17;19.30;61.40
1570;DHT22;778;50.120;8.698;2023-06-04T06:33:48;19.60;60.10
1570;DHT22;778;50.120;8.698;2023-06-04T06:36:17;19.70;59.70
1570;DHT22;778;50.120;8.698;2023-06-04T06:38:46;19.40;58.70
1570;DHT22;778;50.120;8.698;2023-06-04T06:41:14;19.40;58.40
1570;DHT22;778;50.120;8.698;2023-06-04T06:43:43;19.50;59.40
1570;DHT22;778;50.120;8.698;2023-06-04T06:46:11;19.60;59.20
1570;DHT22;778;50.120;8.698;2023-06-04T06:48:40;19.60;58.20
1570;DHT22;778;50.120;8.698;2023-06-04T06:51:13;19.90;58.60
1570;DHT22;778;50.120;8.698;2023-06-04T06:53:45;20.40;57.40
1570;DHT22;778;50.120;8.698;2023-06-04T06:56:14;20.80;56.90
1570;DHT22;778;50.120;8.698;2023-06-04T06:58:43;21.10;56.40
1570;DHT22;778;50.120;8.698;2023-06-04T07:01:12;21.20;55.50
1570;DHT22;778;50.120;8.698;2023-06-04T07:03:41;21.10;56.50
1570;DHT22;778;50.120;8.698;2023-06-04T07:06:09;21.00;56.30
1570;DHT22;778;50.120;8.698;2023-06-04T07:08:39;20.70;56.40
1570;DHT22;778;50.120;8.698;2023-06-04T07:11:09;21.10;55.80
1570;DHT22;778;50.120;8.698;2023-06-04T07:13:39;21.60;55.40
1570;DHT22;778;50.120;8.698;2023-06-04T07:16:07;21.90;55.00
1570;DHT22;778;50.120;8.698;2023-06-04T07:18:36;21.80;53.50
1570;DHT22;778;50.120;8.698;2023-06-04T07:21:04;21.30;53.10
1570;DHT22;778;50.120;8.698;2023-06-04T07:23:33;21.00;55.00
1570;DHT22;778;50.120;8.698;2023-06-04T07:26:03;21.10;53.80
1570;DHT22;778;50.120;8.698;2023-06-04T07:28:31;21.00;54.50
1570;DHT22;778;50.120;8.698;2023-06-04T07:31:00;21.20;54.40
1570;DHT22;778;50.120;8.698;2023-06-04T07:33:29;21.30;54.30
1570;DHT22;778;50.120;8.698;2023-06-04T07:35:57;21.40;55.70
1570;DHT22;778;50.120;8.698;2023-06-04T07:38:26;21.70;55.50
1570;DHT22;778;50.120;8.698;2023-06-04T07:40:54;22.20;56.10
1570;DHT22;778;50.120;8.698;2023-06-04T07:43:24;22.30;54.40
1570;DHT22;778;50.120;8.698;2023-06-04T07:45:53;22.20;54.80
1570;DHT22;778;50.120;8.698;2023-06-04T07:48:21;22.30;58.70
1570;DHT22;778;50.120;8.698;2023-06-04T07:50:57;22.50;55.50
1570;DHT22;778;50.120;8.698;2023-06-04T07:53:26;22.20;55.70
1570;DHT22;778;50.120;8.698;2023-06-04T07:55:54;22.10;55.40
1570;DHT22;778;50.120;8.698;2023-06-04T07:58:26;22.40;61.00
1570;DHT22;778;50.120;8.698;2023-06-04T08:00:55;22.70;54.30
1570;DHT22;778;50.120;8.698;2023-06-04T08:03:23;22.70;54.10
1570;DHT22;778;50.120;8.698;2023-06-04T08:05:53;23.00;54.20
1570;DHT22;778;50.120;8.698;2023-06-04T08:08:21;23.00;53.30
1570;DHT22;778;50.120;8.698;2023-06-04T08:10:49;23.10;52.90
1570;DHT22;778;50.120;8.698;2023-06-04T08:13:18;23.00;52.90
1570;DHT22;778;50.120;8.698;2023-06-04T08:15:49;23.20;53.50
1570;DHT22;778;50.120;8.698;2023-06-04T08:18:17;23.50;54.20
1570;DHT22;778;50.120;8.698;2023-06-04T08:20:45;23.40;51.90
1570;DHT22;778;50.120;8.698;2023-06-04T08:23:14;23.20;53.30
1570;DHT22;778;50.120;8.698;2023-06-04T08:25:42;23.50;52.20
1570;DHT22;778;50.120;8.698;2023-06-04T08:28:13;23.70;52.50
1570;DHT22;778;50.120;8.698;2023-06-04T08:30:42;23.70;52.30
1570;DHT22;778;50.120;8.698;2023-06-04T08:33:13;23.80;52.00
1570;DHT22;778;50.120;8.698;2023-06-04T08:35:42;23.20;52.50
1570;DHT22;778;50.120;8.698;2023-06-04T08:38:10;23.40;52.90
1570;DHT22;778;50.120;8.698;2023-06-04T08:40:39;23.70;52.30
1570;DHT22;778;50.120;8.698;2023-06-04T08:43:07;24.00;52.40
1570;DHT22;778;50.120;8.698;2023-06-04T08:45:39;24.20;52.60
1570;DHT22;778;50.120;8.698;2023-06-04T08:48:10;24.00;52.70
1570;DHT22;778;50.120;8.698;2023-06-04T08:50:42;24.50;54.30
1570;DHT22;778;50.120;8.698;2023-06-04T08:53:15;24.20;53.70
1570;DHT22;778;50.120;8.698;2023-06-04T08:55:44;24.70;52.40
1570;DHT22;778;50.120;8.698;2023-06-04T08:58:13;24.40;51.40
1570;DHT22;778;50.120;8.698;2023-06-04T09:00:42;24.90;51.30
1570;DHT22;778;50.120;8.698;2023-06-04T09:03:11;25.00;51.30
1570;DHT22;778;50.120;8.698;2023-06-04T09:05:43;24.90;52.50
1570;DHT22;778;50.120;8.698;2023-06-04T09:08:16;25.20;50.50
1570;DHT22;778;50.120;8.698;2023-06-04T09:10:46;25.30;51.60
1570;DHT22;778;50.120;8.698;2023-06-04T09:13:19;25.20;50.40
1570;DHT22;778;50.120;8.698;2023-06-04T09:15:59;25.30;50.50
1570;DHT22;778;50.120;8.698;2023-06-04T09:18:28;25.20;51.40
1570;DHT22;778;50.120;8.698;2023-06-04T09:21:05;25.00;54.30
1570;DHT22;778;50.120;8.698;2023-06-04T09:23:36;25.70;53.10
1570;DHT22;778;50.120;8.698;2023-06-04T09:26:09;25.90;49.90
1570;DHT22;778;50.120;8.698;2023-06-04T09:28:40;25.80;50.20
1570;DHT22;778;50.120;8.698;2023-06-04T09:31:09;25.70;50.40
1570;DHT22;778;50.120;8.698;2023-06-04T09:33:44;25.90;49.40
1570;DHT22;778;50.120;8.698;2023-06-04T09:36:15;25.70;51.00
1570;DHT22;778;50.120;8.698;2023-06-04T09:38:45;25.50;48.20
1570;DHT22;778;50.120;8.698;2023-06-04T09:41:17;25.10;47.50
1570;DHT22;778;50.120;8.698;2023-06-04T09:43:51;25.20;47.80
1570;DHT22;778;50.120;8.698;2023-06-04T09:46:30;25.20;47.10
1570;DHT22;778;50.120;8.698;2023-06-04T09:49:00;25.20;46.10
1570;DHT22;778;50.120;8.698;2023-06-04T09:51:31;24.90;46.10
1570;DHT22;778;50.120;8.698;2023-06-04T09:54:02;24.70;48.30
1570;DHT22;778;50.120;8.698;2023-06-04T09:56:39;25.10;45.70
1570;DHT22;778;50.120;8.698;2023-06-04T09:59:09;25.30;46.30
1570;DHT22;778;50.120;8.698;2023-06-04T10:01:39;25.80;45.40
1570;DHT22;778;50.120;8.698;2023-06-04T10:04:10;26.30;44.70
1570;DHT22;778;50.120;8.698;2023-06-04T10:06:43;25.80;45.40
1570;DHT22;778;50.120;8.698;2023-06-04T10:09:13;25.90;44.10
1570;DHT22;778;50.120;8.698;2023-06-04T10:11:44;25.80;43.90
1570;DHT22;778;50.120;8.698;2023-06-04T10:14:18;26.10;43.60
1570;DHT22;778;50.120;8.698;2023-06-04T10:16:50;26.40;43.30
1570;DHT22;778;50.120;8.698;2023-06-04T10:19:19;26.40;43.30
1570;DHT22;778;50.120;8.698;2023-06-04T10:21:49;26.10;44.30
1570;DHT22;778;50.120;8.698;2023-06-04T10:24:18;26.30;45.60
1570;DHT22;778;50.120;8.698;2023-06-04T10:26:48;26.40;44.40
1570;DHT22;778;50.120;8.698;2023-06-04T10:29:18;26.70;45.90
1570;DHT22;778;50.120;8.698;2023-06-04T10:31:47;26.80;43.40
1570;DHT22;778;50.120;8.698;2023-06-04T10:34:16;26.40;42.80
1570;DHT22;778;50.120;8.698;2023-06-04T10:36:46;26.10;43.50
1570;DHT22;778;50.120;8.698;2023-06-04T10:39:26;26.00;46.10
1570;DHT22;778;50.120;8.698;2023-06-04T10:41:59;25.80;47.70
1570;DHT22;778;50.120;8.698;2023-06-04T10:44:28;26.20;46.60
1570;DHT22;778;50.120;8.698;2023-06-04T10:46:58;25.60;44.30
1570;DHT22;778;50.120;8.698;2023-06-04T10:49:27;26.00;43.00
1570;DHT22;778;50.120;8.698;2023-06-04T10:51:56;25.30;44.10
1570;DHT22;778;50.120;8.698;2023-06-04T10:54:31;25.40;44.50
1570;DHT22;778;50.120;8.698;2023-06-04T10:57:10;25.50;43.40
1570;DHT22;778;50.120;8.698;2023-06-04T10:59:39;25.40;42.90
1570;DHT22;778;50.120;8.698;2023-06-04T11:02:08;25.50;44.90
1570;DHT22;778;50.120;8.698;2023-06-04T11:04:37;25.70;44.80
1570;DHT22;778;50.120;8.698;2023-06-04T11:07:07;25.30;43.50
1570;DHT22;778;50.120;8.698;2023-06-04T11:09:47;25.00;43.90
1570;DHT22;778;50.120;8.698;2023-06-04T11:12:16;25.30;45.50
1570;DHT22;778;50.120;8.698;2023-06-04T11:14:54;25.20;43.50
1570;DHT22;778;50.120;8.698;2023-06-04T11:17:23;25.40;43.80
1570;DHT22;778;50.120;8.698;2023-06-04T11:19:51;25.20;44.60
1570;DHT22;778;50.120;8.698;2023-06-04T11:22:22;25.30;42.40
1570;DHT22;778;50.120;8.698;2023-06-04T11:24:57;25.40;45.20
1570;DHT22;778;50.120;8.698;2023-06-04T11:27:26;25.20;43.00
1570;DHT22;778;50.120;8.698;2023-06-04T11:30:03;25.20;43.30
1570;DHT22;778;50.120;8.698;2023-06-04T11:32:33;25.30;43.20
1570;DHT22;778;50.120;8.698;2023-06-04T11:35:03;25.50;45.30
1570;DHT22;778;50.120;8.698;2023-06-04T11:37:33;25.60;43.80
1570;DHT22;778;50.120;8.698;2023-06-04T11:40:14;25.80;44.00
1570;DHT22;778;50.120;8.698;2023-06-04T11:42:44;25.30;45.40
1570;DHT22;778;50.120;8.698;2023-06-04T11:45:15;25.40;45.40
1570;DHT22;778;50.120;8.698;2023-06-04T11:47:45;25.60;43.80
1570;DHT22;778;50.120;8.698;2023-06-04T11:50:15;25.20;44.80
1570;DHT22;778;50.120;8.698;2023-06-04T11:52:43;24.90;43.40
1570;DHT22;778;50.120;8.698;2023-06-04T11:55:14;24.80;43.60
1570;DHT22;778;50.120;8.698;2023-06-04T11:57:44;25.00;44.20
1570;DHT22;778;50.120;8.698;2023-06-04T12:00:14;24.70;42.80
1570;DHT22;778;50.120;8.698;2023-06-04T12:02:51;24.90;44.90
1570;DHT22;778;50.120;8.698;2023-06-04T12:05:23;25.10;44.10
1570;DHT22;778;50.120;8.698;2023-06-04T12:08:04;25.10;44.80
1570;DHT22;778;50.120;8.698;2023-06-04T12:10:38;25.00;45.10
1570;DHT22;778;50.120;8.698;2023-06-04T12:13:07;25.10;44.70
1570;DHT22;778;50.120;8.698;2023-06-04T12:15:35;24.70;44.00
1570;DHT22;778;50.120;8.698;2023-06-04T12:18:04;24.70;44.10
1570;DHT22;778;50.120;8.698;2023-06-04T12:20:34;25.00;45.50
1570;DHT22;778;50.120;8.698;2023-06-04T12:23:05;25.00;45.70
1570;DHT22;778;50.120;8.698;2023-06-04T12:25:34;24.80;43.90
1570;DHT22;778;50.120;8.698;2023-06-04T12:28:07;24.70;45.70
1570;DHT22;778;50.120;8.698;2023-06-04T12:30:45;24.70;42.90
1570;DHT22;778;50.120;8.698;2023-06-04T12:33:15;24.20;42.20
1570;DHT22;778;50.120;8.698;2023-06-04T12:35:44;24.50;43.70
1570;DHT22;778;50.120;8.698;2023-06-04T12:38:12;24.80;43.10
1570;DHT22;778;50.120;8.698;2023-06-04T12:40:41;24.70;43.40
1570;DHT22;778;50.120;8.698;2023-06-04T12:43:11;24.50;43.90
1570;DHT22;778;50.120;8.698;2023-06-04T12:45:39;24.40;42.70
1570;DHT22;778;50.120;8.698;2023-06-04T12:48:07;24.60;44.20
1570;DHT22;778;50.120;8.698;2023-06-04T12:50:36;24.40;43.90
1570;DHT22;778;50.120;8.698;2023-06-04T12:53:04;24.30;43.90
1570;DHT22;778;50.120;8.698;2023-06-04T12:55:33;24.30;43.80
1570;DHT22;778;50.120;8.698;2023-06-04T12:58:01;24.30;44.90
1570;DHT22;778;50.120;8.698;2023-06-04T13:00:31;24.30;45.30
1570;DHT22;778;50.120;8.698;2023-06-04T13:03:00;24.40;45.00
1570;DHT22;778;50.120;8.698;2023-06-04T13:05:28;24.60;44.00
1570;DHT22;778;50.120;8.698;2023-06-04T13:07:57;24.60;43.50
1570;DHT22;778;50.120;8.698;2023-06-04T13:10:25;24.50;43.20
1570;DHT22;778;50.120;8.698;2023-06-04T13:12:54;24.60;43.50
1570;DHT22;778;50.120;8.698;2023-06-04T13:15:22;24.50;41.80
1570;DHT22;778;50.120;8.698;2023-06-04T13:17:52;24.10;42.10
1570;DHT22;778;50.120;8.698;2023-06-04T13:20:20;24.20;43.60
1570;DHT22;778;50.120;8.698;2023-06-04T13:22:49;24.30;44.10
1570;DHT22;778;50.120;8.698;2023-06-04T13:25:18;24.30;44.20
1570;DHT22;778;50.120;8.698;2023-06-04T13:27:49;24.40;43.40
1570;DHT22;778;50.120;8.698;2023-06-04T13:30:17;24.30;43.10
1570;DHT22;778;50.120;8.698;2023-06-04T13:32:46;24.10;41.60
1570;DHT22;778;50.120;8.698;2023-06-04T13:35:16;24.20;42.00
1570;DHT22;778;50.120;8.698;2023-06-04T13:37:44;24.20;43.90
1570;DHT22;778;50.120;8.698;2023-06-04T13:40:13;24.30;44.20
1570;DHT22;778;50.120;8.698;2023-06-04T13:42:42;24.40;45.80
1570;DHT22;778;50.120;8.698;2023-06-04T13:45:11;24.40;44.90
1570;DHT22;778;50.120;8.698;2023-06-04T13:47:39;24.40;45.50
1570;DHT22;778;50.120;8.698;2023-06-04T13:50:08;24.60;45.50
1570;DHT22;778;50.120;8.698;2023-06-04T13:52:39;24.70;45.10
1570;DHT22;778;50.120;8.698;2023-06-04T13:55:08;24.60;45.90
1570;DHT22;778;50.120;8.698;2023-06-04T13:57:37;24.60;45.70
1570;DHT22;778;50.120;8.698;2023-06-04T14:00:07;24.80;44.90
1570;DHT22;778;50.120;8.698;2023-06-04T14:02:36;24.80;44.10
1570;DHT22;778;50.120;8.698;2023-06-04T14:05:05;24.90;43.30
1570;DHT22;778;50.120;8.698;2023-06-04T14:07:34;24.70;43.50
1570;DHT22;778;50.120;8.698;2023-06-04T14:10:05;24.70;43.70
1570;DHT22;778;50.120;8.698;2023-06-04T14:12:34;24.60;43.90
1570;DHT22;778;50.120;8.698;2023-06-04T14:15:03;24.90;44.70
1570;DHT22;778;50.120;8.698;2023-06-04T14:17:32;24.80;44.90
1570;DHT22;778;50.120;8.698;2023-06-04T14:20:02;24.70;45.10
1570;DHT22;778;50.120;8.698;2023-06-04T14:22:34;24.80;43.80
1570;DHT22;778;50.120;8.698;2023-06-04T14:25:05;24.80;43.50
1570;DHT22;778;50.120;8.698;2023-06-04T14:27:35;24.90;43.80
1570;DHT22;778;50.120;8.698;2023-06-04T14:30:04;25.00;42.90
1570;DHT22;778;50.120;8.698;2023-06-04T14:32:35;24.90;42.20
1570;DHT22;778;50.120;8.698;2023-06-04T14:35:05;24.70;42.50
1570;DHT22;778;50.120;8.698;2023-06-04T14:37:35;24.60;42.20
1570;DHT22;778;50.120;8.698;2023-06-04T14:40:06;24.80;42.60
1570;DHT22;778;50.120;8.698;2023-06-04T14:42:35;24.90;41.60
1570;DHT22;778;50.120;8.698;2023-06-04T14:45:04;25.00;42.50
1570;DHT22;778;50.120;8.698;2023-06-04T14:47:33;24.90;42.70
1570;DHT22;778;50.120;8.698;2023-06-04T14:50:02;24.80;43.20
1570;DHT22;778;50.120;8.698;2023-06-04T14:52:31;24.90;43.50
1570;DHT22;778;50.120;8.698;2023-06-04T14:54:59;25.10;44.30
1570;DHT22;778;50.120;8.698;2023-06-04T14:57:29;25.10;41.50
1570;DHT22;778;50.120;8.698;2023-06-04T14:59:57;25.10;42.00
1570;DHT22;778;50.120;8.698;2023-06-04T15:02:27;25.00;42.20
1570;DHT22;778;50.120;8.698;2023-06-04T15:04:56;25.00;41.20
1570;DHT22;778;50.120;8.698;2023-06-04T15:07:24;25.10;41.20
1570;DHT22;778;50.120;8.698;2023-06-04T15:09:53;25.10;41.10
1570;DHT22;778;50.120;8.698;2023-06-04T15:12:21;25.20;41.40
1570;DHT22;778;50.120;8.698;2023-06-04T15:14:51;25.10;41.10
1570;DHT22;778;50.120;8.698;2023-06-04T15:17:20;25.00;41.30
1570;DHT22;778;50.120;8.698;2023-06-04T15:19:48;25.10;40.80
1570;DHT22;778;50.120;8.698;2023-06-04T15:22:17;24.90;41.70
1570;DHT22;778;50.120;8.698;2023-06-04T15:24:45;25.00;41.20
1570;DHT22;778;50.120;8.698;2023-06-04T15:27:14;25.10;42.50
1570;DHT22;778;50.120;8.698;2023-06-04T15:29:43;25.10;41.80
1570;DHT22;778;50.120;8.698;2023-06-04T15:32:13;25.00;42.00
1570;DHT22;778;50.120;8.698;2023-06-04T15:34:41;25.10;43.80
1570;DHT22;778;50.120;8.698;2023-06-04T15:37:10;25.20;43.10
1570;DHT22;778;50.120;8.698;2023-06-04T15:39:38;25.10;45.30
1570;DHT22;778;50.120;8.698;2023-06-04T15:42:07;25.20;44.00
1570;DHT22;778;50.120;8.698;2023-06-04T15:44:36;25.20;44.30
1570;DHT22;778;50.120;8.698;2023-06-04T15:47:04;25.20;42.60
1570;DHT22;778;50.120;8.698;2023-06-04T15:49:34;25.20;42.10
1570;DHT22;778;50.120;8.698;2023-06-04T15:52:03;25.20;42.10
1570;DHT22;778;50.120;8.698;2023-06-04T15:54:32;25.20;42.20
1570;DHT22;778;50.120;8.698;2023-06-04T15:57:12;25.10;42.20
1570;DHT22;778;50.120;8.698;2023-06-04T15:59:40;25.00;42.20
1570;DHT22;778;50.120;8.698;2023-06-04T16:02:09;25.10;43.20
1570;DHT22;778;50.120;8.698;2023-06-04T16:04:39;25.00;42.40
1570;DHT22;778;50.120;8.698;2023-06-04T16:07:07;25.10;42.80
1570;DHT22;778;50.120;8.698;2023-06-04T16:09:36;25.10;43.00
1570;DHT22;778;50.120;8.698;2023-06-04T16:12:04;25.00;43.90
1570;DHT22;778;50.120;8.698;2023-06-04T16:14:33;25.00;42.40
1570;DHT22;778;50.120;8.698;2023-06-04T16:17:02;25.00;43.00
1570;DHT22;778;50.120;8.698;2023-06-04T16:19:30;25.00;42.90
1570;DHT22;778;50.120;8.698;2023-06-04T16:22:00;24.90;43.40
1570;DHT22;778;50.120;8.698;2023-06-04T16:24:30;25.00;44.10
1570;DHT22;778;50.120;8.698;2023-06-04T16:26:58;25.00;43.30
1570;DHT22;778;50.120;8.698;2023-06-04T16:29:27;25.00;43.10
1570;DHT22;778;50.120;8.698;2023-06-04T16:31:55;25.00;42.70
1570;DHT22;778;50.120;8.698;2023-06-04T16:34:23;24.90;43.70